createdAt,value
2018-07-17T18:42:30.356Z,7.53
2018-07-17T18:44:58.253Z,7.33
2018-07-17T18:47:26.361Z,6.87
2018-07-17T18:50:12.308Z,6.85
2018-07-17T18:52:22.678Z,7.08
2018-07-17T18:54:50.540Z,7.37
2018-07-17T18:57:18.705Z,7.12
2018-07-17T18:59:46.725Z,7.03
2018-07-17T19:02:14.753Z,7.05
2018-07-17T19:04:42.685Z,6.92
2018-07-17T19:07:10.803Z,7.47
2018-07-17T19:09:38.970Z,7.22
2018-07-17T19:12:06.889Z,7.12
2018-07-17T19:14:34.808Z,7.40
2018-07-17T19:17:02.996Z,7.08
2018-07-17T19:19:30.944Z,8.10
2018-07-17T19:21:58.914Z,7.30
2018-07-17T19:24:26.821Z,7.08
2018-07-17T19:26:55.338Z,7.08
2018-07-17T19:29:23.874Z,8.03
2018-07-17T19:31:51.800Z,7.30
2018-07-17T19:34:20.168Z,7.33
2018-07-17T19:36:48.111Z,7.58
2018-07-17T19:39:16.360Z,7.03
2018-07-17T19:41:44.514Z,8.08
2018-07-17T19:44:12.626Z,7.40
2018-07-17T19:46:40.782Z,7.53
2018-07-17T19:49:08.914Z,6.90
2018-07-17T19:51:37.102Z,7.62
2018-07-17T19:54:05.393Z,7.22
2018-07-17T19:56:33.544Z,7.33
2018-07-17T19:59:01.680Z,7.00
2018-07-17T20:01:29.891Z,7.50
2018-07-17T20:03:58.043Z,7.12
2018-07-17T20:06:26.169Z,6.87
2018-07-17T20:08:54.345Z,7.08
2018-07-17T20:11:22.235Z,6.50
2018-07-17T20:13:50.162Z,6.80
2018-07-17T20:16:18.461Z,6.65
2018-07-17T20:18:46.588Z,6.95
2018-07-17T20:21:14.773Z,6.83
2018-07-17T20:23:42.682Z,6.83
2018-07-17T20:26:10.848Z,6.58
2018-07-17T20:28:38.909Z,6.90
2018-07-17T20:31:07.020Z,7.03
2018-07-17T20:33:35.181Z,7.20
2018-07-17T20:36:03.065Z,7.33
2018-07-17T20:38:30.987Z,7.25
2018-07-17T20:40:59.116Z,7.03
2018-07-17T20:43:27.450Z,6.97
2018-07-17T20:45:55.556Z,6.65
2018-07-17T20:48:23.801Z,6.90
2018-07-17T20:50:51.772Z,6.60
2018-07-17T20:53:20.314Z,6.92
2018-07-17T20:55:48.458Z,7.00
2018-07-17T20:58:17.360Z,6.08
2018-07-17T21:00:45.444Z,6.40
2018-07-17T21:03:13.570Z,6.10
2018-07-17T21:05:41.673Z,5.92
2018-07-17T21:08:10.168Z,5.53
2018-07-17T21:10:38.291Z,6.65
2018-07-17T21:13:06.437Z,6.25
2018-07-17T21:15:34.571Z,6.05
2018-07-17T21:18:02.709Z,6.50
2018-07-17T21:20:30.883Z,5.90
2018-07-17T21:22:59.018Z,5.55
2018-07-17T21:25:27.160Z,6.30
2018-07-17T21:27:55.290Z,5.78
2018-07-17T21:30:23.248Z,5.87
2018-07-17T21:32:51.405Z,6.10
2018-07-17T21:35:19.335Z,6.62
2018-07-17T21:37:47.313Z,6.08
2018-07-17T21:40:15.263Z,6.37
2018-07-17T21:42:43.765Z,6.42
2018-07-17T21:45:11.931Z,6.67
2018-07-17T21:47:40.132Z,6.25
2018-07-17T21:50:08.640Z,6.55
2018-07-17T21:52:36.894Z,7.55
2018-07-17T21:55:05.021Z,7.30
2018-07-17T21:57:33.192Z,7.92
2018-07-17T22:00:01.335Z,7.45
2018-07-17T22:02:29.524Z,7.50
2018-07-17T22:04:57.663Z,7.62
2018-07-17T22:07:25.573Z,7.45
2018-07-17T22:09:53.521Z,7.17
2018-07-17T22:12:21.659Z,7.47
2018-07-17T22:14:49.575Z,7.00
2018-07-17T22:17:17.677Z,7.55
2018-07-17T22:19:45.637Z,7.87
2018-07-17T22:22:13.543Z,7.67
2018-07-17T22:24:41.437Z,8.10
2018-07-17T22:27:09.544Z,7.62
2018-07-17T22:29:37.508Z,7.80
2018-07-17T22:32:05.787Z,8.30
2018-07-17T22:34:33.704Z,8.35
2018-07-17T22:37:01.829Z,8.10
2018-07-17T22:39:29.734Z,8.45
2018-07-17T22:41:57.876Z,7.58
2018-07-17T22:44:25.785Z,8.40
2018-07-17T22:46:53.914Z,8.60
2018-07-17T22:49:22.741Z,7.83
2018-07-17T22:51:52.440Z,8.10
2018-07-17T22:54:20.536Z,8.75
2018-07-17T22:56:48.692Z,8.33
2018-07-17T22:59:17.490Z,8.45
2018-07-17T23:01:45.851Z,10.25
2018-07-17T23:04:13.830Z,9.95
2018-07-17T23:06:41.982Z,9.78
2018-07-17T23:09:10.780Z,9.03
2018-07-17T23:11:39.861Z,8.45
2018-07-17T23:14:08.400Z,8.40
2018-07-17T23:16:36.338Z,8.00
2018-07-17T23:19:04.449Z,8.93
2018-07-17T23:21:32.349Z,8.55
2018-07-17T23:24:00.257Z,8.65
2018-07-17T23:26:28.389Z,9.35
2018-07-17T23:28:56.528Z,8.53
2018-07-17T23:31:24.640Z,8.88
2018-07-17T23:33:52.851Z,10.03
2018-07-17T23:36:20.950Z,8.63
2018-07-17T23:38:48.836Z,9.75
2018-07-17T23:41:16.772Z,9.30
2018-07-17T23:43:44.664Z,8.70
2018-07-17T23:46:12.776Z,9.45
2018-07-17T23:48:40.726Z,10.20
2018-07-17T23:51:08.825Z,10.43
2018-07-17T23:53:36.974Z,9.80
2018-07-17T23:56:05.061Z,9.98
2018-07-17T23:58:33.184Z,11.50
